createdAt,value
2019-02-17T00:00:44.300Z,1.23
2019-02-17T00:03:14.987Z,1.18
2019-02-17T00:05:45.809Z,1.12
2019-02-17T00:08:16.390Z,1.02
2019-02-17T00:10:47.008Z,1.21
2019-02-17T00:13:17.254Z,1.32
2019-02-17T00:15:48.274Z,1.08
2019-02-17T00:18:17.546Z,1.16
2019-02-17T00:20:46.645Z,1.12
2019-02-17T00:23:15.744Z,1.13
2019-02-17T00:25:44.828Z,1.16
2019-02-17T00:28:13.904Z,1.32
2019-02-17T00:30:43.004Z,1.19
2019-02-17T00:33:12.092Z,1.23
2019-02-17T00:35:41.208Z,1.22
2019-02-17T00:38:10.297Z,1.19
2019-02-17T00:40:39.394Z,1.13
2019-02-17T00:43:08.499Z,1.20
2019-02-17T00:45:37.603Z,1.16
2019-02-17T00:48:06.689Z,1.30
2019-02-17T00:50:35.796Z,1.24
2019-02-17T00:53:04.885Z,1.26
2019-02-17T00:55:33.992Z,1.23
2019-02-17T00:58:03.084Z,1.09
2019-02-17T01:00:32.190Z,1.10
2019-02-17T01:03:01.369Z,1.01
2019-02-17T01:05:30.465Z,1.05
2019-02-17T01:07:59.547Z,1.02
2019-02-17T01:10:28.645Z,0.91
2019-02-17T01:12:57.729Z,0.85
2019-02-17T01:15:26.830Z,0.66
2019-02-17T01:17:55.921Z,0.83
2019-02-17T01:20:25.019Z,0.67
2019-02-17T01:22:54.111Z,0.78
2019-02-17T01:25:23.212Z,0.82
2019-02-17T01:27:52.304Z,0.72
2019-02-17T01:30:21.387Z,0.85
2019-02-17T01:32:50.496Z,0.84
2019-02-17T01:35:19.580Z,0.88
2019-02-17T01:37:48.689Z,0.74
2019-02-17T01:40:17.771Z,0.83
2019-02-17T01:42:46.909Z,0.80
2019-02-17T01:45:15.986Z,0.75
2019-02-17T01:47:45.087Z,0.80
2019-02-17T01:50:14.182Z,0.82
2019-02-17T01:52:43.304Z,0.68
2019-02-17T01:55:12.387Z,0.89
2019-02-17T01:57:41.497Z,0.74
2019-02-17T02:00:12.228Z,0.81
2019-02-17T02:02:41.323Z,0.69
2019-02-17T02:05:10.403Z,0.81
2019-02-17T02:07:39.516Z,0.78
2019-02-17T02:10:08.917Z,0.68
2019-02-17T02:12:38.023Z,0.77
2019-02-17T02:15:07.627Z,0.63
2019-02-17T02:17:36.726Z,0.63
2019-02-17T02:20:06.887Z,0.51
2019-02-17T02:22:35.976Z,0.52
2019-02-17T02:25:05.467Z,0.56
2019-02-17T02:27:34.547Z,0.45
2019-02-17T02:30:03.655Z,0.52
2019-02-17T02:32:32.746Z,0.53
2019-02-17T02:35:01.854Z,0.36
2019-02-17T02:37:30.936Z,0.50
2019-02-17T02:40:00.096Z,0.42
2019-02-17T02:42:29.239Z,0.53
2019-02-17T02:44:58.348Z,0.48
2019-02-17T02:47:27.436Z,0.46
2019-02-17T02:49:56.552Z,0.43
2019-02-17T02:52:25.636Z,0.45
2019-02-17T02:54:54.745Z,0.37
2019-02-17T02:57:24.098Z,0.48
2019-02-17T02:59:53.213Z,0.36
2019-02-17T03:02:22.295Z,0.43
2019-02-17T03:04:51.408Z,0.55
2019-02-17T03:07:21.896Z,0.58
2019-02-17T03:09:51.008Z,0.62
2019-02-17T03:12:20.095Z,0.56
2019-02-17T03:14:49.195Z,0.55
2019-02-17T03:17:18.276Z,0.69
2019-02-17T03:19:47.381Z,0.48
2019-02-17T03:22:16.462Z,0.47
2019-02-17T03:24:45.543Z,0.29
2019-02-17T03:27:14.648Z,0.24
2019-02-17T03:29:43.731Z,0.19
2019-02-17T03:32:12.839Z,0.29
2019-02-17T03:34:41.913Z,0.17
2019-02-17T03:37:11.025Z,0.26
2019-02-17T03:39:40.183Z,0.26
2019-02-17T03:42:09.309Z,0.29
2019-02-17T03:44:38.412Z,0.22
2019-02-17T03:47:07.512Z,0.16
2019-02-17T03:49:36.619Z,0.19
2019-02-17T03:52:05.731Z,0.28
2019-02-17T03:54:34.803Z,0.21
2019-02-17T03:57:03.903Z,0.13
2019-02-17T03:59:33.017Z,0.03
2019-02-17T04:02:02.109Z,0.20
2019-02-17T04:04:31.198Z,0.10
2019-02-17T04:07:00.303Z,0.10
2019-02-17T04:09:29.388Z,0.09
2019-02-17T04:11:58.497Z,0.05
2019-02-17T04:14:27.580Z,-0.02
2019-02-17T04:16:56.687Z,-0.02
2019-02-17T04:19:25.762Z,0.14
2019-02-17T04:21:54.869Z,0.18
2019-02-17T04:24:23.948Z,0.18
2019-02-17T04:26:53.037Z,0.11
2019-02-17T04:29:22.137Z,0.19
2019-02-17T04:31:51.507Z,0.12
2019-02-17T04:34:20.585Z,0.24
2019-02-17T04:36:49.678Z,0.20
2019-02-17T04:39:18.791Z,0.36
2019-02-17T04:41:47.867Z,0.30
2019-02-17T04:44:16.989Z,0.40
2019-02-17T04:46:46.083Z,0.41
2019-02-17T04:49:15.187Z,0.38
2019-02-17T04:51:44.267Z,0.56
2019-02-17T04:54:13.369Z,0.33
2019-02-17T04:56:42.443Z,0.35
2019-02-17T04:59:11.550Z,0.31
2019-02-17T05:01:40.640Z,0.32
2019-02-17T05:04:09.745Z,0.34
2019-02-17T05:06:40.749Z,0.39
2019-02-17T05:09:09.638Z,0.58
2019-02-17T05:11:38.722Z,0.65
2019-02-17T05:14:07.823Z,0.50
2019-02-17T05:16:36.904Z,0.41
2019-02-17T05:19:06.008Z,0.56
2019-02-17T05:21:35.092Z,0.42
2019-02-17T05:24:04.197Z,0.54
2019-02-17T05:26:33.274Z,0.61
2019-02-17T05:29:02.374Z,0.58
2019-02-17T05:31:31.458Z,0.57
2019-02-17T05:34:00.558Z,0.62
2019-02-17T05:36:29.648Z,0.72
2019-02-17T05:38:58.739Z,0.70
2019-02-17T05:41:27.838Z,0.73
2019-02-17T05:43:56.948Z,0.68
2019-02-17T05:46:26.059Z,0.67
2019-02-17T05:48:55.214Z,0.82
2019-02-17T05:51:24.330Z,1.16
2019-02-17T05:53:53.420Z,1.06
2019-02-17T05:56:22.531Z,1.12
2019-02-17T05:58:51.615Z,0.97
2019-02-17T06:01:20.715Z,0.92
2019-02-17T06:03:49.796Z,0.83
2019-02-17T06:06:18.904Z,0.84
2019-02-17T06:08:47.982Z,0.90
2019-02-17T06:11:17.087Z,0.93
2019-02-17T06:13:46.174Z,0.92
2019-02-17T06:16:15.281Z,0.92
2019-02-17T06:18:44.354Z,0.84
2019-02-17T06:21:13.456Z,0.90
2019-02-17T06:23:42.535Z,0.93
2019-02-17T06:26:11.644Z,0.94
2019-02-17T06:28:40.731Z,0.88
2019-02-17T06:31:14.580Z,1.07
2019-02-17T06:33:40.630Z,0.99
2019-02-17T06:36:09.730Z,0.97
2019-02-17T06:38:38.879Z,0.94
2019-02-17T06:41:07.953Z,1.04
2019-02-17T06:43:37.060Z,1.14
2019-02-17T06:46:06.342Z,1.14
2019-02-17T06:48:35.418Z,0.91
2019-02-17T06:51:04.528Z,1.04
2019-02-17T06:53:33.607Z,1.09
2019-02-17T06:56:18.134Z,1.19
2019-02-17T06:58:47.221Z,1.22
2019-02-17T07:01:24.390Z,1.35
2019-02-17T07:03:47.134Z,1.68
2019-02-17T07:06:24.377Z,1.88
2019-02-17T07:08:53.442Z,3.12
2019-02-17T07:11:23.450Z,4.25
2019-02-17T07:13:52.602Z,5.02
2019-02-17T07:16:22.925Z,5.59
2019-02-17T07:18:52.007Z,6.69
2019-02-17T07:21:21.137Z,7.41
2019-02-17T07:23:50.216Z,7.64
2019-02-17T07:26:19.320Z,7.60
2019-02-17T07:28:48.465Z,7.53
2019-02-17T07:31:17.581Z,7.35
2019-02-17T07:33:46.667Z,7.31
2019-02-17T07:36:15.773Z,7.29
2019-02-17T07:38:44.855Z,7.26
2019-02-17T07:41:13.962Z,7.18
2019-02-17T07:43:43.066Z,6.81
2019-02-17T07:46:12.171Z,7.26
2019-02-17T07:48:41.274Z,7.75
2019-02-17T07:51:10.384Z,7.52
2019-02-17T07:53:39.465Z,7.81
2019-02-17T07:56:08.556Z,7.83
2019-02-17T07:58:37.653Z,8.15
2019-02-17T08:01:07.407Z,8.36
2019-02-17T08:03:36.539Z,8.63
2019-02-17T08:06:05.628Z,8.65
2019-02-17T08:08:34.738Z,9.05
2019-02-17T08:11:04.456Z,8.89
2019-02-17T08:13:33.705Z,9.22
2019-02-17T08:16:02.854Z,9.87
2019-02-17T08:18:31.967Z,9.86
2019-02-17T08:21:01.057Z,10.16
2019-02-17T08:23:30.161Z,10.88
2019-02-17T08:25:59.243Z,10.69
2019-02-17T08:28:28.353Z,11.34
2019-02-17T08:30:57.436Z,11.08
2019-02-17T08:33:26.543Z,11.50
2019-02-17T08:35:55.640Z,11.90
2019-02-17T08:38:24.738Z,12.06
2019-02-17T08:40:53.840Z,13.10
2019-02-17T08:43:22.963Z,15.41
2019-02-17T08:45:52.060Z,16.42
2019-02-17T08:48:21.179Z,17.13
2019-02-17T08:50:50.277Z,17.01
2019-02-17T08:53:19.383Z,18.61
2019-02-17T08:55:48.471Z,17.01
2019-02-17T08:58:17.584Z,15.54
2019-02-17T09:00:46.677Z,17.34
2019-02-17T09:03:15.785Z,18.05
2019-02-17T09:05:44.877Z,18.22
2019-02-17T09:08:13.990Z,17.92
2019-02-17T09:10:43.075Z,16.70
2019-02-17T09:13:12.185Z,16.34
2019-02-17T09:15:41.274Z,15.81
2019-02-17T09:18:10.519Z,17.73
2019-02-17T09:20:39.819Z,19.40
2019-02-17T09:23:08.968Z,19.58
2019-02-17T09:25:38.060Z,18.07
2019-02-17T09:28:07.168Z,18.95
2019-02-17T09:30:36.259Z,17.26
2019-02-17T09:33:05.368Z,18.36
2019-02-17T09:35:34.458Z,19.15
2019-02-17T09:38:03.768Z,18.26
2019-02-17T09:40:32.865Z,18.68
2019-02-17T09:43:01.999Z,16.26
2019-02-17T09:45:31.091Z,18.03
2019-02-17T09:48:00.193Z,16.61
2019-02-17T09:50:29.281Z,19.83
2019-02-17T09:52:58.389Z,21.65
2019-02-17T09:55:27.496Z,18.34
2019-02-17T09:57:56.608Z,19.76
2019-02-17T10:00:25.700Z,17.82
2019-02-17T10:02:54.802Z,18.14
2019-02-17T10:05:23.906Z,18.61
2019-02-17T10:07:53.022Z,16.65
2019-02-17T10:10:22.136Z,17.67
2019-02-17T10:12:51.234Z,17.49
2019-02-17T10:15:20.319Z,17.00
2019-02-17T10:17:49.396Z,18.86
2019-02-17T10:20:18.510Z,18.93
2019-02-17T10:22:47.595Z,20.83
2019-02-17T10:25:16.704Z,19.50
2019-02-17T10:27:45.792Z,22.04
2019-02-17T10:30:15.238Z,20.26
2019-02-17T10:32:44.328Z,20.11
2019-02-17T10:35:13.554Z,19.31
2019-02-17T10:37:42.640Z,21.53
2019-02-17T10:40:15.213Z,20.83
2019-02-17T10:42:44.301Z,19.91
2019-02-17T10:45:13.717Z,20.21
2019-02-17T10:47:42.796Z,18.86
2019-02-17T10:50:12.330Z,22.58
2019-02-17T10:52:41.420Z,20.88
2019-02-17T10:55:10.764Z,22.78
2019-02-17T10:57:41.516Z,23.54
2019-02-17T11:00:13.043Z,26.29
2019-02-17T11:02:47.069Z,24.11
2019-02-17T11:05:13.001Z,20.45
2019-02-17T11:07:43.551Z,23.21
2019-02-17T11:10:12.893Z,24.16
2019-02-17T11:12:41.979Z,26.32
2019-02-17T11:15:12.854Z,22.29
2019-02-17T11:17:41.937Z,23.67
2019-02-17T11:20:11.047Z,21.64
2019-02-17T11:22:40.150Z,22.38
2019-02-17T11:25:09.361Z,26.70
2019-02-17T11:27:38.438Z,23.56
2019-02-17T11:30:09.760Z,27.55
2019-02-17T11:32:38.841Z,23.83
2019-02-17T11:35:08.066Z,24.53
2019-02-17T11:37:37.157Z,25.43
2019-02-17T11:40:07.837Z,22.65
2019-02-17T11:42:36.926Z,21.46
2019-02-17T11:45:07.398Z,24.47
2019-02-17T11:47:36.489Z,22.66
2019-02-17T11:50:05.937Z,21.81
2019-02-17T11:52:35.078Z,21.50
2019-02-17T11:55:04.320Z,22.73
2019-02-17T11:57:33.422Z,23.29
2019-02-17T12:00:02.529Z,25.42
2019-02-17T12:02:31.623Z,24.06
2019-02-17T12:05:00.815Z,25.14
2019-02-17T12:07:29.907Z,24.94
2019-02-17T12:09:59.019Z,27.75
2019-02-17T12:12:28.103Z,27.63
2019-02-17T12:14:57.206Z,26.77
2019-02-17T12:17:26.286Z,23.44
2019-02-17T12:19:59.346Z,24.59
2019-02-17T12:22:42.318Z,24.34
2019-02-17T12:25:25.959Z,24.96
2019-02-17T12:28:00.417Z,25.93
2019-02-17T12:30:29.517Z,24.03
2019-02-17T12:32:58.597Z,26.33
2019-02-17T12:35:27.702Z,27.82
2019-02-17T12:37:56.787Z,28.14
2019-02-17T12:40:25.900Z,27.05
2019-02-17T12:42:55.042Z,26.86
2019-02-17T12:45:24.136Z,25.89
2019-02-17T12:47:57.877Z,23.83
2019-02-17T12:50:24.052Z,22.90
2019-02-17T12:52:53.148Z,26.65
2019-02-17T12:55:22.246Z,26.65
2019-02-17T12:57:51.337Z,28.67
2019-02-17T13:00:20.448Z,25.84
2019-02-17T13:02:49.529Z,28.55
2019-02-17T13:05:18.631Z,26.23
2019-02-17T13:07:47.728Z,24.75
2019-02-17T13:10:16.830Z,24.82
2019-02-17T13:12:46.065Z,23.36
2019-02-17T13:15:15.243Z,21.25
2019-02-17T13:17:44.328Z,22.87
2019-02-17T13:20:13.450Z,22.68
2019-02-17T13:22:42.533Z,24.02
2019-02-17T13:25:11.967Z,21.84
2019-02-17T13:27:41.082Z,21.35
2019-02-17T13:30:13.533Z,22.00
2019-02-17T13:32:42.644Z,21.69
2019-02-17T13:35:11.742Z,20.81
2019-02-17T13:37:40.847Z,20.77
2019-02-17T13:40:10.804Z,19.64
2019-02-17T13:42:39.911Z,19.81
2019-02-17T13:45:10.632Z,20.84
2019-02-17T13:47:39.744Z,22.16
2019-02-17T13:50:10.598Z,21.16
2019-02-17T13:52:39.697Z,22.14
2019-02-17T13:55:09.146Z,23.02
2019-02-17T13:57:38.268Z,24.13
2019-02-17T14:00:10.342Z,24.80
2019-02-17T14:02:39.456Z,23.63
2019-02-17T14:05:08.677Z,23.37
2019-02-17T14:07:37.777Z,24.52
2019-02-17T14:10:08.039Z,23.41
2019-02-17T14:12:37.147Z,22.31
2019-02-17T14:15:08.042Z,21.20
2019-02-17T14:17:37.143Z,20.44
2019-02-17T14:20:07.556Z,20.53
2019-02-17T14:22:36.704Z,21.60
2019-02-17T14:25:05.840Z,23.49
2019-02-17T14:27:34.958Z,22.53
2019-02-17T14:30:04.429Z,22.40
2019-02-17T14:32:33.535Z,22.14
2019-02-17T14:35:02.613Z,24.02
2019-02-17T14:37:31.726Z,25.31
2019-02-17T14:40:00.852Z,22.86
2019-02-17T14:42:29.915Z,21.83
2019-02-17T14:44:59.053Z,22.59
2019-02-17T14:47:28.156Z,20.88
2019-02-17T14:49:57.265Z,22.18
2019-02-17T14:52:26.350Z,23.55
2019-02-17T14:54:55.459Z,23.82
2019-02-17T14:57:24.539Z,24.44
2019-02-17T14:59:53.648Z,22.96
2019-02-17T15:02:22.733Z,23.42
2019-02-17T15:04:51.843Z,23.56
2019-02-17T15:07:20.939Z,21.62
2019-02-17T15:09:50.045Z,21.69
2019-02-17T15:12:19.140Z,21.70
2019-02-17T15:14:48.244Z,22.06
2019-02-17T15:17:17.344Z,23.62
2019-02-17T15:19:46.456Z,22.57
2019-02-17T15:22:15.532Z,21.41
2019-02-17T15:24:44.637Z,20.98
2019-02-17T15:27:13.718Z,22.69
2019-02-17T15:29:42.825Z,19.70
2019-02-17T15:32:11.928Z,21.85
2019-02-17T15:34:41.140Z,21.04
2019-02-17T15:37:10.229Z,19.60
2019-02-17T15:39:39.334Z,20.63
2019-02-17T15:42:08.413Z,19.73
2019-02-17T15:44:37.596Z,21.29
2019-02-17T15:47:06.700Z,20.55
2019-02-17T15:49:35.806Z,19.85
2019-02-17T15:52:04.886Z,19.00
2019-02-17T15:54:33.982Z,19.67
2019-02-17T15:57:03.072Z,18.49
2019-02-17T15:59:32.380Z,18.04
2019-02-17T16:02:01.482Z,18.61
2019-02-17T16:04:30.579Z,17.58
2019-02-17T16:06:59.660Z,16.71
2019-02-17T16:09:28.777Z,15.96
2019-02-17T16:11:57.864Z,15.40
2019-02-17T16:14:26.965Z,14.96
2019-02-17T16:16:56.100Z,14.70
2019-02-17T16:19:25.207Z,14.44
2019-02-17T16:21:54.306Z,14.36
2019-02-17T16:24:23.410Z,14.24
2019-02-17T16:26:52.509Z,14.07
2019-02-17T16:29:21.619Z,13.81
2019-02-17T16:31:50.702Z,13.53
2019-02-17T16:34:19.815Z,13.29
2019-02-17T16:36:48.911Z,13.18
2019-02-17T16:39:18.029Z,12.53
2019-02-17T16:41:47.119Z,12.24
2019-02-17T16:44:16.255Z,12.04
2019-02-17T16:46:45.349Z,11.56
2019-02-17T16:49:14.463Z,11.46
2019-02-17T16:51:43.563Z,11.04
2019-02-17T16:54:12.665Z,10.58
2019-02-17T16:56:41.748Z,10.22
2019-02-17T16:59:10.849Z,9.86
2019-02-17T17:01:39.927Z,9.53
2019-02-17T17:04:09.039Z,9.25
2019-02-17T17:06:38.115Z,9.06
2019-02-17T17:09:07.743Z,9.01
2019-02-17T17:11:36.835Z,8.75
2019-02-17T17:14:08.964Z,8.51
2019-02-17T17:16:36.730Z,8.50
2019-02-17T17:19:06.353Z,8.34
2019-02-17T17:21:35.688Z,8.19
2019-02-17T17:24:04.765Z,7.92
2019-02-17T17:26:33.857Z,7.75
2019-02-17T17:29:02.961Z,7.57
2019-02-17T17:31:32.302Z,7.81
2019-02-17T17:34:01.394Z,7.54
2019-02-17T17:36:30.494Z,7.52
2019-02-17T17:38:59.583Z,7.40
2019-02-17T17:41:28.711Z,7.30
2019-02-17T17:43:57.995Z,7.23
2019-02-17T17:46:27.133Z,7.16
2019-02-17T17:48:56.230Z,7.45
2019-02-17T17:51:25.423Z,7.11
2019-02-17T17:53:54.487Z,6.89
2019-02-17T17:56:23.601Z,6.74
2019-02-17T17:58:52.677Z,6.61
2019-02-17T18:01:21.803Z,6.41
2019-02-17T18:03:50.885Z,6.28
2019-02-17T18:06:19.984Z,6.21
2019-02-17T18:08:49.061Z,6.18
2019-02-17T18:11:18.169Z,6.02
2019-02-17T18:13:47.252Z,6.05
2019-02-17T18:16:16.357Z,6.00
2019-02-17T18:18:45.447Z,5.80
2019-02-17T18:21:14.549Z,5.74
2019-02-17T18:23:43.635Z,5.84
2019-02-17T18:26:12.736Z,5.63
2019-02-17T18:28:41.821Z,5.41
2019-02-17T18:31:10.931Z,5.44
2019-02-17T18:33:40.014Z,5.47
2019-02-17T18:36:09.118Z,5.52
2019-02-17T18:38:38.225Z,5.68
2019-02-17T18:41:07.330Z,5.80
2019-02-17T18:43:36.451Z,5.63
2019-02-17T18:46:05.554Z,5.83
2019-02-17T18:48:34.635Z,5.96
2019-02-17T18:51:03.737Z,5.96
2019-02-17T18:53:32.821Z,6.06
2019-02-17T18:56:01.923Z,5.89
2019-02-17T18:58:31.001Z,5.81
2019-02-17T19:01:00.099Z,5.83
2019-02-17T19:03:29.213Z,6.09
2019-02-17T19:05:58.319Z,6.36
2019-02-17T19:08:27.406Z,6.41
2019-02-17T19:10:56.494Z,6.46
2019-02-17T19:13:25.611Z,6.46
2019-02-17T19:15:54.708Z,6.33
2019-02-17T19:18:23.838Z,6.38
2019-02-17T19:20:53.804Z,6.46
2019-02-17T19:23:22.901Z,6.46
2019-02-17T19:25:51.991Z,6.53
2019-02-17T19:28:21.107Z,6.99
2019-02-17T19:30:50.192Z,7.40
2019-02-17T19:33:19.167Z,8.00
2019-02-17T19:35:48.254Z,7.89
2019-02-17T19:38:17.353Z,8.19
2019-02-17T19:40:46.438Z,8.17
2019-02-17T19:43:15.577Z,7.53
2019-02-17T19:45:44.666Z,7.19
2019-02-17T19:48:13.766Z,7.09
2019-02-17T19:50:42.860Z,6.87
2019-02-17T19:53:11.971Z,6.70
2019-02-17T19:55:41.059Z,6.67
2019-02-17T19:58:10.164Z,6.46
2019-02-17T20:00:39.252Z,6.14
2019-02-17T20:03:36.335Z,5.96
2019-02-17T20:06:05.468Z,5.87
2019-02-17T20:08:34.794Z,5.72
2019-02-17T20:11:05.139Z,5.64
2019-02-17T20:13:34.283Z,5.55
2019-02-17T20:16:03.370Z,5.55
2019-02-17T20:18:32.479Z,5.50
2019-02-17T20:21:01.564Z,5.52
2019-02-17T20:23:30.765Z,5.51
2019-02-17T20:25:59.846Z,5.23
2019-02-17T20:28:40.632Z,5.22
2019-02-17T20:30:59.773Z,5.03
2019-02-17T20:33:28.857Z,5.03
2019-02-17T20:36:02.625Z,4.92
2019-02-17T20:38:28.763Z,4.95
2019-02-17T20:40:57.879Z,4.93
2019-02-17T20:43:26.991Z,4.85
2019-02-17T20:45:56.105Z,4.63
2019-02-17T20:48:25.189Z,4.51
2019-02-17T20:50:54.291Z,4.43
2019-02-17T20:53:23.373Z,4.24
2019-02-17T20:55:52.484Z,4.15
2019-02-17T20:58:21.565Z,4.13
2019-02-17T21:00:50.671Z,4.09
2019-02-17T21:03:19.764Z,3.87
2019-02-17T21:05:48.866Z,3.90
2019-02-17T21:08:17.950Z,3.85
2019-02-17T21:10:47.056Z,3.92
2019-02-17T21:13:16.137Z,3.94
2019-02-17T21:15:45.240Z,3.77
2019-02-17T21:18:14.318Z,3.78
2019-02-17T21:20:43.422Z,3.72
2019-02-17T21:23:12.497Z,3.57
2019-02-17T21:25:41.575Z,3.57
2019-02-17T21:28:10.681Z,3.60
2019-02-17T21:30:39.757Z,3.53
2019-02-17T21:33:08.912Z,3.50
2019-02-17T21:35:37.998Z,3.43
2019-02-17T21:38:07.098Z,3.29
2019-02-17T21:40:36.178Z,3.37
2019-02-17T21:43:05.308Z,3.29
2019-02-17T21:45:34.524Z,3.23
2019-02-17T21:48:03.640Z,3.23
2019-02-17T21:50:32.718Z,3.18
2019-02-17T21:53:01.835Z,3.07
2019-02-17T21:55:30.919Z,3.06
2019-02-17T21:58:00.031Z,3.07
2019-02-17T22:00:29.116Z,3.25
2019-02-17T22:02:58.215Z,3.29
2019-02-17T22:05:27.301Z,3.22
2019-02-17T22:07:56.401Z,3.29
2019-02-17T22:10:25.477Z,3.26
2019-02-17T22:12:54.575Z,3.14
2019-02-17T22:15:23.667Z,3.14
2019-02-17T22:17:52.769Z,3.01
2019-02-17T22:20:22.013Z,2.98
2019-02-17T22:22:51.119Z,2.94
2019-02-17T22:25:20.198Z,2.85
2019-02-17T22:27:49.367Z,2.92
2019-02-17T22:30:18.451Z,2.86
2019-02-17T22:32:47.529Z,2.66
2019-02-17T22:35:16.635Z,2.85
2019-02-17T22:37:45.718Z,2.81
2019-02-17T22:40:14.930Z,2.67
2019-02-17T22:42:44.005Z,2.61
2019-02-17T22:45:13.235Z,2.51
2019-02-17T22:47:42.419Z,2.59
2019-02-17T22:50:11.631Z,2.57
2019-02-17T22:52:40.708Z,2.61
2019-02-17T22:55:10.389Z,2.76
2019-02-17T22:57:39.576Z,2.67
2019-02-17T23:00:24.767Z,2.57
2019-02-17T23:02:53.847Z,2.46
2019-02-17T23:05:22.956Z,2.41
2019-02-17T23:07:52.036Z,2.44
2019-02-17T23:10:21.143Z,2.36
2019-02-17T23:12:50.226Z,2.43
2019-02-17T23:15:19.330Z,2.39
2019-02-17T23:17:48.415Z,2.32
2019-02-17T23:20:17.526Z,2.30
2019-02-17T23:22:46.615Z,2.31
2019-02-17T23:25:15.715Z,2.31
2019-02-17T23:27:44.790Z,2.27
2019-02-17T23:30:13.891Z,2.30
2019-02-17T23:32:42.961Z,2.28
2019-02-17T23:35:12.072Z,2.09
2019-02-17T23:37:41.152Z,2.21
2019-02-17T23:40:10.974Z,2.22
2019-02-17T23:42:40.071Z,2.27
2019-02-17T23:45:09.231Z,2.13
2019-02-17T23:47:38.306Z,2.13
2019-02-17T23:50:07.511Z,2.03
2019-02-17T23:52:36.611Z,2.13
2019-02-17T23:55:05.795Z,2.13
2019-02-17T23:57:34.902Z,2.22
